sensor_id;sensor_type;location;lat;lon;timestamp;temperature;humidity
10306;DHT22;5198;52.382;9.020;2023-03-14T00:03:38;12.70;99.90
10306;DHT22;5198;52.382;9.020;2023-03-14T00:07:41;12.70;99.90
10306;DHT22;5198;52.382;9.020;2023-03-14T00:11:44;12.70;99.90
10306;DHT22;5198;52.382;9.020;2023-03-14T00:15:47;12.60;99.90
10306;DHT22;5198;52.382;9.020;2023-03-14T00:19:51;12.60;99.90
10306;DHT22;5198;52.382;9.020;2023-03-14T00:23:55;12.60;99.90
10306;DHT22;5198;52.382;9.020;2023-03-14T00:27:58;12.60;99.90
10306;DHT22;5198;52.382;9.020;2023-03-14T00:32:02;12.50;99.90
10306;DHT22;5198;52.382;9.020;2023-03-14T00:36:07;12.50;99.90
10306;DHT22;5198;52.382;9.020;2023-03-14T00:40:11;12.50;99.90
10306;DHT22;5198;52.382;9.020;2023-03-14T00:44:14;12.50;99.90
10306;DHT22;5198;52.382;9.020;2023-03-14T00:48:17;12.50;99.90
10306;DHT22;5198;52.382;9.020;2023-03-14T00:52:21;12.50;99.90
10306;DHT22;5198;52.382;9.020;2023-03-14T00:56:24;12.50;99.90
10306;DHT22;5198;52.382;9.020;2023-03-14T01:00:26;12.50;99.90
10306;DHT22;5198;52.382;9.020;2023-03-14T01:04:29;12.50;99.90
10306;DHT22;5198;52.382;9.020;2023-03-14T01:08:34;12.50;99.90
10306;DHT22;5198;52.382;9.020;2023-03-14T01:12:37;12.50;99.90
10306;DHT22;5198;52.382;9.020;2023-03-14T01:16:40;12.50;99.90
10306;DHT22;5198;52.382;9.020;2023-03-14T01:20:43;12.50;99.90
10306;DHT22;5198;52.382;9.020;2023-03-14T01:24:49;12.50;99.90
10306;DHT22;5198;52.382;9.020;2023-03-14T01:28:52;12.50;99.90
10306;DHT22;5198;52.382;9.020;2023-03-14T01:32:55;12.50;99.90
10306;DHT22;5198;52.382;9.020;2023-03-14T01:36:58;12.50;99.90
10306;DHT22;5198;52.382;9.020;2023-03-14T01:41:02;12.50;99.90
10306;DHT22;5198;52.382;9.020;2023-03-14T01:49:24;12.50;99.90
10306;DHT22;5198;52.382;9.020;2023-03-14T01:53:28;12.50;99.90
10306;DHT22;5198;52.382;9.020;2023-03-14T01:57:33;12.40;99.90
10306;DHT22;5198;52.382;9.020;2023-03-14T02:01:38;12.40;99.90
10306;DHT22;5198;52.382;9.020;2023-03-14T02:05:44;12.50;99.90
10306;DHT22;5198;52.382;9.020;2023-03-14T02:09:48;12.50;99.90
10306;DHT22;5198;52.382;9.020;2023-03-14T02:13:52;12.50;99.90
10306;DHT22;5198;52.382;9.020;2023-03-14T02:17:55;12.50;99.90
10306;DHT22;5198;52.382;9.020;2023-03-14T02:22:00;12.50;99.90
10306;DHT22;5198;52.382;9.020;2023-03-14T02:26:05;12.50;99.90
10306;DHT22;5198;52.382;9.020;2023-03-14T02:30:13;12.50;99.90
10306;DHT22;5198;52.382;9.020;2023-03-14T02:34:17;12.60;99.90
10306;DHT22;5198;52.382;9.020;2023-03-14T02:38:20;12.60;99.90
10306;DHT22;5198;52.382;9.020;2023-03-14T02:42:25;12.60;99.90
10306;DHT22;5198;52.382;9.020;2023-03-14T02:46:29;12.60;99.90
10306;DHT22;5198;52.382;9.020;2023-03-14T02:50:32;12.50;99.90
10306;DHT22;5198;52.382;9.020;2023-03-14T02:54:36;12.50;99.90
10306;DHT22;5198;52.382;9.020;2023-03-14T02:58:39;12.50;99.90
10306;DHT22;5198;52.382;9.020;2023-03-14T03:02:43;12.50;99.90
10306;DHT22;5198;52.382;9.020;2023-03-14T03:06:47;12.50;99.90
10306;DHT22;5198;52.382;9.020;2023-03-14T03:10:50;12.50;99.90
10306;DHT22;5198;52.382;9.020;2023-03-14T03:14:53;12.50;99.90
10306;DHT22;5198;52.382;9.020;2023-03-14T03:18:57;12.50;99.90
10306;DHT22;5198;52.382;9.020;2023-03-14T03:23:00;12.40;99.90
10306;DHT22;5198;52.382;9.020;2023-03-14T03:27:04;12.40;99.90
10306;DHT22;5198;52.382;9.020;2023-03-14T03:31:07;12.30;99.90
10306;DHT22;5198;52.382;9.020;2023-03-14T03:35:11;12.20;99.90
10306;DHT22;5198;52.382;9.020;2023-03-14T03:39:14;12.00;99.90
10306;DHT22;5198;52.382;9.020;2023-03-14T03:43:17;11.90;99.90
10306;DHT22;5198;52.382;9.020;2023-03-14T03:47:20;11.80;99.90
10306;DHT22;5198;52.382;9.020;2023-03-14T03:51:24;11.60;99.90
10306;DHT22;5198;52.382;9.020;2023-03-14T03:55:27;11.50;99.90
10306;DHT22;5198;52.382;9.020;2023-03-14T03:59:30;11.40;99.90
10306;DHT22;5198;52.382;9.020;2023-03-14T04:03:33;11.30;99.90
10306;DHT22;5198;52.382;9.020;2023-03-14T04:07:37;11.20;99.90
10306;DHT22;5198;52.382;9.020;2023-03-14T04:11:40;11.10;99.90
10306;DHT22;5198;52.382;9.020;2023-03-14T04:15:43;11.00;99.90
10306;DHT22;5198;52.382;9.020;2023-03-14T04:19:46;10.90;99.90
10306;DHT22;5198;52.382;9.020;2023-03-14T04:24:02;10.90;99.90
10306;DHT22;5198;52.382;9.020;2023-03-14T04:28:05;10.80;99.90
10306;DHT22;5198;52.382;9.020;2023-03-14T04:32:08;10.80;99.90
10306;DHT22;5198;52.382;9.020;2023-03-14T04:36:11;10.70;99.90
10306;DHT22;5198;52.382;9.020;2023-03-14T04:40:16;10.60;99.90
10306;DHT22;5198;52.382;9.020;2023-03-14T04:44:19;10.50;99.90
10306;DHT22;5198;52.382;9.020;2023-03-14T04:48:22;10.50;99.90
10306;DHT22;5198;52.382;9.020;2023-03-14T04:52:25;10.50;99.90
10306;DHT22;5198;52.382;9.020;2023-03-14T04:56:29;10.40;99.90
10306;DHT22;5198;52.382;9.020;2023-03-14T05:00:32;10.40;99.90
10306;DHT22;5198;52.382;9.020;2023-03-14T05:04:35;10.30;99.90
10306;DHT22;5198;52.382;9.020;2023-03-14T05:08:38;10.30;99.90
10306;DHT22;5198;52.382;9.020;2023-03-14T05:12:42;10.30;99.90
10306;DHT22;5198;52.382;9.020;2023-03-14T05:16:45;10.20;99.90
10306;DHT22;5198;52.382;9.020;2023-03-14T05:20:50;10.20;99.90
10306;DHT22;5198;52.382;9.020;2023-03-14T05:24:52;10.20;99.90
10306;DHT22;5198;52.382;9.020;2023-03-14T05:28:59;10.20;99.90
10306;DHT22;5198;52.382;9.020;2023-03-14T05:33:02;10.20;99.90
10306;DHT22;5198;52.382;9.020;2023-03-14T05:37:05;10.10;99.90
10306;DHT22;5198;52.382;9.020;2023-03-14T05:41:08;10.10;99.90
10306;DHT22;5198;52.382;9.020;2023-03-14T05:45:12;10.10;99.90
10306;DHT22;5198;52.382;9.020;2023-03-14T05:49:15;10.10;99.90
10306;DHT22;5198;52.382;9.020;2023-03-14T05:53:18;10.20;99.90
10306;DHT22;5198;52.382;9.020;2023-03-14T05:57:21;10.20;99.90
10306;DHT22;5198;52.382;9.020;2023-03-14T06:01:26;10.20;99.90
10306;DHT22;5198;52.382;9.020;2023-03-14T06:05:29;10.20;99.90
10306;DHT22;5198;52.382;9.020;2023-03-14T06:09:32;10.20;99.90
10306;DHT22;5198;52.382;9.020;2023-03-14T06:13:35;10.30;99.90
10306;DHT22;5198;52.382;9.020;2023-03-14T06:17:39;10.30;99.90
10306;DHT22;5198;52.382;9.020;2023-03-14T06:21:42;10.40;99.90
10306;DHT22;5198;52.382;9.020;2023-03-14T06:25:45;10.40;99.90
10306;DHT22;5198;52.382;9.020;2023-03-14T06:29:48;10.40;99.90
10306;DHT22;5198;52.382;9.020;2023-03-14T06:33:52;10.40;99.90
10306;DHT22;5198;52.382;9.020;2023-03-14T06:37:55;10.50;99.90
10306;DHT22;5198;52.382;9.020;2023-03-14T06:41:57;10.50;99.90
10306;DHT22;5198;52.382;9.020;2023-03-14T06:46:00;10.50;99.90
10306;DHT22;5198;52.382;9.020;2023-03-14T06:50:05;10.60;99.90
10306;DHT22;5198;52.382;9.020;2023-03-14T06:54:09;10.60;99.90
10306;DHT22;5198;52.382;9.020;2023-03-14T06:58:12;10.60;99.90
10306;DHT22;5198;52.382;9.020;2023-03-14T07:02:15;10.60;99.90
10306;DHT22;5198;52.382;9.020;2023-03-14T07:06:19;10.60;99.90
10306;DHT22;5198;52.382;9.020;2023-03-14T07:10:22;10.60;99.90
10306;DHT22;5198;52.382;9.020;2023-03-14T07:14:25;10.70;99.90
10306;DHT22;5198;52.382;9.020;2023-03-14T07:18:27;10.70;99.90
10306;DHT22;5198;52.382;9.020;2023-03-14T07:22:33;10.70;99.90
10306;DHT22;5198;52.382;9.020;2023-03-14T07:26:36;10.70;99.90
10306;DHT22;5198;52.382;9.020;2023-03-14T07:30:38;10.70;99.90
10306;DHT22;5198;52.382;9.020;2023-03-14T07:34:41;10.80;99.90
10306;DHT22;5198;52.382;9.020;2023-03-14T07:38:45;10.90;99.90
10306;DHT22;5198;52.382;9.020;2023-03-14T07:42:48;11.20;99.90
10306;DHT22;5198;52.382;9.020;2023-03-14T07:46:51;11.50;99.90
10306;DHT22;5198;52.382;9.020;2023-03-14T07:50:54;11.80;99.90
10306;DHT22;5198;52.382;9.020;2023-03-14T07:54:59;12.00;99.90
10306;DHT22;5198;52.382;9.020;2023-03-14T07:59:07;12.20;99.90
10306;DHT22;5198;52.382;9.020;2023-03-14T08:03:10;12.30;99.90
10306;DHT22;5198;52.382;9.020;2023-03-14T08:07:13;12.20;99.90
10306;DHT22;5198;52.382;9.020;2023-03-14T08:11:17;12.10;99.90
10306;DHT22;5198;52.382;9.020;2023-03-14T08:15:20;12.00;99.90
10306;DHT22;5198;52.382;9.020;2023-03-14T08:19:24;11.90;99.90
10306;DHT22;5198;52.382;9.020;2023-03-14T08:23:27;11.70;99.90
10306;DHT22;5198;52.382;9.020;2023-03-14T08:27:31;11.70;99.90
10306;DHT22;5198;52.382;9.020;2023-03-14T08:31:34;11.60;99.90
10306;DHT22;5198;52.382;9.020;2023-03-14T08:35:37;11.50;99.90
10306;DHT22;5198;52.382;9.020;2023-03-14T08:39:48;11.50;99.90
10306;DHT22;5198;52.382;9.020;2023-03-14T08:43:52;11.40;99.90
10306;DHT22;5198;52.382;9.020;2023-03-14T08:47:55;11.30;99.90
10306;DHT22;5198;52.382;9.020;2023-03-14T08:52:00;11.30;99.90
10306;DHT22;5198;52.382;9.020;2023-03-14T08:56:04;11.30;99.90
10306;DHT22;5198;52.382;9.020;2023-03-14T09:00:09;11.30;99.90
10306;DHT22;5198;52.382;9.020;2023-03-14T09:04:14;11.30;99.90
10306;DHT22;5198;52.382;9.020;2023-03-14T09:08:17;11.30;99.90
10306;DHT22;5198;52.382;9.020;2023-03-14T09:12:20;11.30;99.90
10306;DHT22;5198;52.382;9.020;2023-03-14T09:16:31;11.40;99.90
10306;DHT22;5198;52.382;9.020;2023-03-14T09:20:35;11.50;99.90
10306;DHT22;5198;52.382;9.020;2023-03-14T09:24:39;11.50;99.90
10306;DHT22;5198;52.382;9.020;2023-03-14T09:28:42;11.70;99.90
10306;DHT22;5198;52.382;9.020;2023-03-14T09:32:46;11.80;99.90
10306;DHT22;5198;52.382;9.020;2023-03-14T09:36:49;11.90;99.90
10306;DHT22;5198;52.382;9.020;2023-03-14T09:40:52;12.00;99.90
10306;DHT22;5198;52.382;9.020;2023-03-14T09:44:56;12.00;99.90
10306;DHT22;5198;52.382;9.020;2023-03-14T09:49:01;12.00;99.90
10306;DHT22;5198;52.382;9.020;2023-03-14T09:53:04;12.00;99.90
10306;DHT22;5198;52.382;9.020;2023-03-14T09:57:11;12.00;99.90
10306;DHT22;5198;52.382;9.020;2023-03-14T10:01:16;12.00;99.90
10306;DHT22;5198;52.382;9.020;2023-03-14T10:05:22;12.00;99.90
10306;DHT22;5198;52.382;9.020;2023-03-14T10:09:25;12.00;99.90
10306;DHT22;5198;52.382;9.020;2023-03-14T10:13:30;12.00;99.90
10306;DHT22;5198;52.382;9.020;2023-03-14T10:17:38;11.90;99.90
10306;DHT22;5198;52.382;9.020;2023-03-14T10:21:43;11.90;99.90
10306;DHT22;5198;52.382;9.020;2023-03-14T10:30:14;12.00;99.90
10306;DHT22;5198;52.382;9.020;2023-03-14T10:34:29;12.00;99.90
10306;DHT22;5198;52.382;9.020;2023-03-14T10:38:35;11.70;99.90
10306;DHT22;5198;52.382;9.020;2023-03-14T10:42:39;11.50;99.90
10306;DHT22;5198;52.382;9.020;2023-03-14T10:46:42;10.90;99.90
10306;DHT22;5198;52.382;9.020;2023-03-14T10:54:52;10.50;99.90
10306;DHT22;5198;52.382;9.020;2023-03-14T10:58:57;10.20;99.90
10306;DHT22;5198;52.382;9.020;2023-03-14T11:03:03;9.40;99.90
10306;DHT22;5198;52.382;9.020;2023-03-14T11:07:09;9.40;99.90
10306;DHT22;5198;52.382;9.020;2023-03-14T11:11:18;9.10;99.90
10306;DHT22;5198;52.382;9.020;2023-03-14T11:15:24;8.70;99.90
10306;DHT22;5198;52.382;9.020;2023-03-14T11:23:48;7.90;99.90
10306;DHT22;5198;52.382;9.020;2023-03-14T11:32:01;6.90;99.90
10306;DHT22;5198;52.382;9.020;2023-03-14T11:36:05;6.90;99.90
10306;DHT22;5198;52.382;9.020;2023-03-14T11:40:13;6.60;99.90
10306;DHT22;5198;52.382;9.020;2023-03-14T11:44:17;6.40;99.90
10306;DHT22;5198;52.382;9.020;2023-03-14T11:48:25;6.10;99.90
10306;DHT22;5198;52.382;9.020;2023-03-14T11:52:32;6.00;99.90
10306;DHT22;5198;52.382;9.020;2023-03-14T11:56:37;5.90;99.90
10306;DHT22;5198;52.382;9.020;2023-03-14T12:00:42;5.80;99.90
10306;DHT22;5198;52.382;9.020;2023-03-14T12:04:50;5.70;99.90
10306;DHT22;5198;52.382;9.020;2023-03-14T12:08:55;5.60;99.90
10306;DHT22;5198;52.382;9.020;2023-03-14T12:12:59;5.60;99.90
10306;DHT22;5198;52.382;9.020;2023-03-14T12:17:04;5.60;99.90
10306;DHT22;5198;52.382;9.020;2023-03-14T12:21:09;5.60;99.90
10306;DHT22;5198;52.382;9.020;2023-03-14T12:25:14;5.60;99.90
10306;DHT22;5198;52.382;9.020;2023-03-14T12:29:18;5.70;99.90
10306;DHT22;5198;52.382;9.020;2023-03-14T12:33:26;5.80;99.90
10306;DHT22;5198;52.382;9.020;2023-03-14T12:37:31;5.80;99.90
10306;DHT22;5198;52.382;9.020;2023-03-14T12:41:36;5.90;99.90
10306;DHT22;5198;52.382;9.020;2023-03-14T12:49:46;6.00;99.90
10306;DHT22;5198;52.382;9.020;2023-03-14T12:53:53;6.00;99.90
10306;DHT22;5198;52.382;9.020;2023-03-14T12:57:59;6.10;99.90
10306;DHT22;5198;52.382;9.020;2023-03-14T13:06:44;6.10;99.90
10306;DHT22;5198;52.382;9.020;2023-03-14T13:10:49;6.10;99.90
10306;DHT22;5198;52.382;9.020;2023-03-14T13:14:52;6.20;99.90
10306;DHT22;5198;52.382;9.020;2023-03-14T13:18:59;6.20;99.90
10306;DHT22;5198;52.382;9.020;2023-03-14T13:23:04;6.20;99.90
10306;DHT22;5198;52.382;9.020;2023-03-14T13:27:09;6.10;99.90
10306;DHT22;5198;52.382;9.020;2023-03-14T13:31:20;6.00;99.90
10306;DHT22;5198;52.382;9.020;2023-03-14T13:35:25;5.90;99.90
10306;DHT22;5198;52.382;9.020;2023-03-14T13:39:28;5.80;99.90
10306;DHT22;5198;52.382;9.020;2023-03-14T13:43:33;5.70;99.90
10306;DHT22;5198;52.382;9.020;2023-03-14T13:47:37;5.70;99.90
10306;DHT22;5198;52.382;9.020;2023-03-14T13:51:41;5.70;99.90
10306;DHT22;5198;52.382;9.020;2023-03-14T13:55:44;5.70;99.90
10306;DHT22;5198;52.382;9.020;2023-03-14T13:59:58;5.70;99.90
10306;DHT22;5198;52.382;9.020;2023-03-14T14:04:06;5.70;99.90
10306;DHT22;5198;52.382;9.020;2023-03-14T14:08:10;5.80;99.90
10306;DHT22;5198;52.382;9.020;2023-03-14T14:12:14;5.80;99.90
10306;DHT22;5198;52.382;9.020;2023-03-14T14:16:21;5.80;99.90
10306;DHT22;5198;52.382;9.020;2023-03-14T14:20:26;5.80;99.90
10306;DHT22;5198;52.382;9.020;2023-03-14T14:24:33;5.90;99.90
10306;DHT22;5198;52.382;9.020;2023-03-14T14:28:37;5.90;99.90
10306;DHT22;5198;52.382;9.020;2023-03-14T14:32:43;5.80;99.90
10306;DHT22;5198;52.382;9.020;2023-03-14T14:36:46;5.80;99.90
10306;DHT22;5198;52.382;9.020;2023-03-14T14:40:52;5.80;99.90
10306;DHT22;5198;52.382;9.020;2023-03-14T14:44:56;5.90;99.90
10306;DHT22;5198;52.382;9.020;2023-03-14T14:49:03;5.90;99.90
10306;DHT22;5198;52.382;9.020;2023-03-14T14:53:19;5.90;99.90
10306;DHT22;5198;52.382;9.020;2023-03-14T14:57:23;6.10;99.90
10306;DHT22;5198;52.382;9.020;2023-03-14T15:01:31;6.30;99.90
10306;DHT22;5198;52.382;9.020;2023-03-14T15:05:37;6.40;99.90
10306;DHT22;5198;52.382;9.020;2023-03-14T15:09:41;6.50;99.90
10306;DHT22;5198;52.382;9.020;2023-03-14T15:13:44;6.60;99.90
10306;DHT22;5198;52.382;9.020;2023-03-14T15:17:47;6.70;99.90
10306;DHT22;5198;52.382;9.020;2023-03-14T15:21:51;6.70;99.90
10306;DHT22;5198;52.382;9.020;2023-03-14T15:25:55;6.70;99.90
10306;DHT22;5198;52.382;9.020;2023-03-14T15:29:59;6.60;99.90
10306;DHT22;5198;52.382;9.020;2023-03-14T15:34:01;6.60;99.90
10306;DHT22;5198;52.382;9.020;2023-03-14T15:38:09;6.50;99.90
10306;DHT22;5198;52.382;9.020;2023-03-14T15:42:12;6.40;99.90
10306;DHT22;5198;52.382;9.020;2023-03-14T15:46:15;6.40;99.90
10306;DHT22;5198;52.382;9.020;2023-03-14T15:50:19;6.30;99.90
10306;DHT22;5198;52.382;9.020;2023-03-14T15:54:24;6.30;99.90
10306;DHT22;5198;52.382;9.020;2023-03-14T15:58:29;6.30;99.90
10306;DHT22;5198;52.382;9.020;2023-03-14T16:02:35;6.30;99.90
10306;DHT22;5198;52.382;9.020;2023-03-14T16:06:41;6.40;99.90
10306;DHT22;5198;52.382;9.020;2023-03-14T16:10:47;6.50;99.90
10306;DHT22;5198;52.382;9.020;2023-03-14T16:14:50;6.70;99.90
10306;DHT22;5198;52.382;9.020;2023-03-14T16:18:53;7.00;99.90
10306;DHT22;5198;52.382;9.020;2023-03-14T16:22:56;7.30;99.90
10306;DHT22;5198;52.382;9.020;2023-03-14T16:27:00;7.50;99.90
10306;DHT22;5198;52.382;9.020;2023-03-14T16:31:03;7.60;99.90
10306;DHT22;5198;52.382;9.020;2023-03-14T16:35:06;7.70;99.90
10306;DHT22;5198;52.382;9.020;2023-03-14T16:39:10;7.80;99.90
10306;DHT22;5198;52.382;9.020;2023-03-14T16:43:14;7.80;99.90
10306;DHT22;5198;52.382;9.020;2023-03-14T16:47:17;7.80;99.90
10306;DHT22;5198;52.382;9.020;2023-03-14T16:51:20;7.70;99.90
10306;DHT22;5198;52.382;9.020;2023-03-14T16:55:24;7.60;99.90
10306;DHT22;5198;52.382;9.020;2023-03-14T16:59:29;7.40;99.90
10306;DHT22;5198;52.382;9.020;2023-03-14T17:03:37;7.30;99.90
10306;DHT22;5198;52.382;9.020;2023-03-14T17:07:41;7.20;99.90
10306;DHT22;5198;52.382;9.020;2023-03-14T17:11:44;7.00;99.90
10306;DHT22;5198;52.382;9.020;2023-03-14T17:15:51;6.80;99.90
10306;DHT22;5198;52.382;9.020;2023-03-14T17:19:53;6.70;99.90
10306;DHT22;5198;52.382;9.020;2023-03-14T17:23:58;6.50;99.90
10306;DHT22;5198;52.382;9.020;2023-03-14T17:28:01;6.40;99.90
10306;DHT22;5198;52.382;9.020;2023-03-14T17:32:06;6.30;99.90
10306;DHT22;5198;52.382;9.020;2023-03-14T17:36:09;6.10;99.90
10306;DHT22;5198;52.382;9.020;2023-03-14T17:40:13;6.00;99.90
10306;DHT22;5198;52.382;9.020;2023-03-14T17:44:23;5.90;99.90
10306;DHT22;5198;52.382;9.020;2023-03-14T17:48:27;5.70;99.90
10306;DHT22;5198;52.382;9.020;2023-03-14T17:52:30;5.60;99.90
10306;DHT22;5198;52.382;9.020;2023-03-14T17:56:33;5.50;99.90
10306;DHT22;5198;52.382;9.020;2023-03-14T18:00:41;5.30;99.90
10306;DHT22;5198;52.382;9.020;2023-03-14T18:04:45;5.30;99.90
10306;DHT22;5198;52.382;9.020;2023-03-14T18:08:48;5.20;99.90
10306;DHT22;5198;52.382;9.020;2023-03-14T18:17:03;5.00;99.90
10306;DHT22;5198;52.382;9.020;2023-03-14T18:21:08;4.90;99.90
10306;DHT22;5198;52.382;9.020;2023-03-14T18:25:28;4.90;99.90
10306;DHT22;5198;52.382;9.020;2023-03-14T18:29:31;4.90;99.90
10306;DHT22;5198;52.382;9.020;2023-03-14T18:33:34;4.90;99.90
10306;DHT22;5198;52.382;9.020;2023-03-14T18:37:40;4.80;99.90
10306;DHT22;5198;52.382;9.020;2023-03-14T18:45:49;4.70;99.90
10306;DHT22;5198;52.382;9.020;2023-03-14T18:49:52;4.60;99.90
10306;DHT22;5198;52.382;9.020;2023-03-14T18:53:57;4.50;99.90
10306;DHT22;5198;52.382;9.020;2023-03-14T18:58:11;4.50;99.90
10306;DHT22;5198;52.382;9.020;2023-03-14T19:02:14;4.40;99.90
10306;DHT22;5198;52.382;9.020;2023-03-14T19:06:17;4.40;99.90
10306;DHT22;5198;52.382;9.020;2023-03-14T19:10:23;4.30;99.90
10306;DHT22;5198;52.382;9.020;2023-03-14T19:14:27;4.30;99.90
10306;DHT22;5198;52.382;9.020;2023-03-14T19:18:30;4.30;99.90
10306;DHT22;5198;52.382;9.020;2023-03-14T19:22:33;4.20;99.90
10306;DHT22;5198;52.382;9.020;2023-03-14T19:26:37;4.20;99.90
10306;DHT22;5198;52.382;9.020;2023-03-14T19:30:40;4.10;99.90
10306;DHT22;5198;52.382;9.020;2023-03-14T19:34:43;4.10;99.90
10306;DHT22;5198;52.382;9.020;2023-03-14T19:38:46;4.00;99.90
10306;DHT22;5198;52.382;9.020;2023-03-14T19:42:50;4.00;99.90
10306;DHT22;5198;52.382;9.020;2023-03-14T19:46:53;4.00;99.90
10306;DHT22;5198;52.382;9.020;2023-03-14T19:50:57;4.00;99.90
10306;DHT22;5198;52.382;9.020;2023-03-14T19:55:00;4.00;99.90
10306;DHT22;5198;52.382;9.020;2023-03-14T19:59:05;4.00;99.90
10306;DHT22;5198;52.382;9.020;2023-03-14T20:03:07;4.00;99.90
10306;DHT22;5198;52.382;9.020;2023-03-14T20:07:10;4.00;99.90
10306;DHT22;5198;52.382;9.020;2023-03-14T20:11:15;4.00;99.90
10306;DHT22;5198;52.382;9.020;2023-03-14T20:19:27;4.00;99.90
10306;DHT22;5198;52.382;9.020;2023-03-14T20:23:30;4.00;99.90
10306;DHT22;5198;52.382;9.020;2023-03-14T20:27:33;3.90;99.90
10306;DHT22;5198;52.382;9.020;2023-03-14T20:31:36;3.90;99.90
10306;DHT22;5198;52.382;9.020;2023-03-14T20:35:42;3.80;99.90
10306;DHT22;5198;52.382;9.020;2023-03-14T20:39:45;3.80;99.90
10306;DHT22;5198;52.382;9.020;2023-03-14T20:43:48;3.70;99.90
10306;DHT22;5198;52.382;9.020;2023-03-14T20:47:53;3.70;99.90
10306;DHT22;5198;52.382;9.020;2023-03-14T20:52:03;3.70;99.90
10306;DHT22;5198;52.382;9.020;2023-03-14T20:56:07;3.70;99.90
10306;DHT22;5198;52.382;9.020;2023-03-14T21:00:10;3.60;99.90
10306;DHT22;5198;52.382;9.020;2023-03-14T21:04:14;3.60;99.90
10306;DHT22;5198;52.382;9.020;2023-03-14T21:08:19;3.60;99.90
10306;DHT22;5198;52.382;9.020;2023-03-14T21:16:29;3.50;99.90
10306;DHT22;5198;52.382;9.020;2023-03-14T21:20:33;3.50;99.90
10306;DHT22;5198;52.382;9.020;2023-03-14T21:28:44;3.50;99.90
10306;DHT22;5198;52.382;9.020;2023-03-14T21:32:47;3.50;99.90
10306;DHT22;5198;52.382;9.020;2023-03-14T21:36:50;3.40;99.90
10306;DHT22;5198;52.382;9.020;2023-03-14T21:40:53;3.40;99.90
10306;DHT22;5198;52.382;9.020;2023-03-14T21:44:59;3.40;99.90
10306;DHT22;5198;52.382;9.020;2023-03-14T21:49:02;3.40;99.90
10306;DHT22;5198;52.382;9.020;2023-03-14T21:53:05;3.30;99.90
10306;DHT22;5198;52.382;9.020;2023-03-14T21:57:09;3.30;99.90
10306;DHT22;5198;52.382;9.020;2023-03-14T22:01:13;3.30;99.90
10306;DHT22;5198;52.382;9.020;2023-03-14T22:05:19;3.20;99.90
10306;DHT22;5198;52.382;9.020;2023-03-14T22:09:22;3.20;99.90
10306;DHT22;5198;52.382;9.020;2023-03-14T22:13:25;3.10;99.90
10306;DHT22;5198;52.382;9.020;2023-03-14T22:17:30;3.10;99.90
10306;DHT22;5198;52.382;9.020;2023-03-14T22:21:33;3.10;99.90
10306;DHT22;5198;52.382;9.020;2023-03-14T22:25:37;3.10;99.90
10306;DHT22;5198;52.382;9.020;2023-03-14T22:29:40;3.00;99.90
10306;DHT22;5198;52.382;9.020;2023-03-14T22:33:44;3.00;99.90
10306;DHT22;5198;52.382;9.020;2023-03-14T22:37:49;3.00;99.90
10306;DHT22;5198;52.382;9.020;2023-03-14T22:41:58;2.90;99.90
10306;DHT22;5198;52.382;9.020;2023-03-14T22:46:04;2.90;99.90
10306;DHT22;5198;52.382;9.020;2023-03-14T22:50:10;2.90;99.90
10306;DHT22;5198;52.382;9.020;2023-03-14T22:54:14;2.90;99.90
10306;DHT22;5198;52.382;9.020;2023-03-14T22:58:17;2.80;99.90
10306;DHT22;5198;52.382;9.020;2023-03-14T23:02:19;2.80;99.90
10306;DHT22;5198;52.382;9.020;2023-03-14T23:06:24;2.80;99.90
10306;DHT22;5198;52.382;9.020;2023-03-14T23:10:27;2.80;99.90
10306;DHT22;5198;52.382;9.020;2023-03-14T23:14:30;2.80;99.90
10306;DHT22;5198;52.382;9.020;2023-03-14T23:18:33;2.70;99.90
10306;DHT22;5198;52.382;9.020;2023-03-14T23:26:43;2.70;99.90
10306;DHT22;5198;52.382;9.020;2023-03-14T23:30:46;2.70;99.90
10306;DHT22;5198;52.382;9.020;2023-03-14T23:34:49;2.70;99.90
10306;DHT22;5198;52.382;9.020;2023-03-14T23:39:01;2.70;99.90
10306;DHT22;5198;52.382;9.020;2023-03-14T23:43:06;2.70;99.90
10306;DHT22;5198;52.382;9.020;2023-03-14T23:47:08;2.70;99.90
10306;DHT22;5198;52.382;9.020;2023-03-14T23:51:11;2.70;99.90
10306;DHT22;5198;52.382;9.020;2023-03-14T23:55:14;2.70;99.90
10306;DHT22;5198;52.382;9.020;2023-03-14T23:59:19;2.70;99.90
